createdAt,value
2024-03-16T00:01:24.086Z,13.30
2024-03-16T00:03:51.013Z,11.13
2024-03-16T00:06:17.775Z,11.27
2024-03-16T00:08:44.761Z,11.70
2024-03-16T00:11:11.671Z,10.07
2024-03-16T00:13:38.448Z,10.80
2024-03-16T00:16:05.647Z,11.98
2024-03-16T00:18:33.376Z,12.75
2024-03-16T00:21:00.421Z,12.32
2024-03-16T00:23:27.205Z,10.57
2024-03-16T00:25:53.988Z,12.50
2024-03-16T00:28:20.745Z,15.27
2024-03-16T00:30:47.800Z,13.70
2024-03-16T00:33:14.682Z,11.65
2024-03-16T00:35:41.448Z,10.23
2024-03-16T00:38:08.227Z,11.57
2024-03-16T00:40:35.024Z,12.88
2024-03-16T00:43:01.914Z,12.80
2024-03-16T00:45:28.902Z,14.73
2024-03-16T00:47:57.270Z,13.05
2024-03-16T00:50:24.166Z,15.10
2024-03-16T00:52:50.947Z,13.75
2024-03-16T00:55:17.984Z,12.95
2024-03-16T00:57:44.806Z,17.27
2024-03-16T01:00:12.352Z,13.57
2024-03-16T01:02:40.552Z,13.57
2024-03-16T01:05:07.870Z,16.65
2024-03-16T01:07:34.643Z,13.93
2024-03-16T01:10:02.042Z,14.57
2024-03-16T01:12:29.511Z,13.77
2024-03-16T01:14:56.283Z,15.27
2024-03-16T01:17:23.140Z,13.45
2024-03-16T01:19:50.100Z,11.55
2024-03-16T01:22:16.923Z,14.98
2024-03-16T01:24:43.728Z,14.73
2024-03-16T01:27:10.642Z,13.68
2024-03-16T01:29:37.430Z,13.27
2024-03-16T01:32:06.484Z,16.05
2024-03-16T01:34:33.370Z,14.70
2024-03-16T01:37:00.236Z,15.18
2024-03-16T01:39:27.085Z,13.93
2024-03-16T01:41:53.944Z,14.73
2024-03-16T01:44:20.728Z,12.45
2024-03-16T01:46:48.445Z,14.63
2024-03-16T01:49:15.666Z,13.70
2024-03-16T01:51:42.635Z,17.15
2024-03-16T01:54:11.696Z,14.13
2024-03-16T01:56:38.676Z,13.20
2024-03-16T01:59:05.520Z,15.73
2024-03-16T02:01:32.724Z,14.90
2024-03-16T02:03:59.987Z,13.43
2024-03-16T02:06:29.275Z,13.95
2024-03-16T02:08:56.143Z,15.93
2024-03-16T02:11:23.352Z,13.52
2024-03-16T02:13:50.658Z,13.73
2024-03-16T02:16:17.460Z,14.10
2024-03-16T02:18:44.419Z,15.15
2024-03-16T02:21:11.862Z,14.68
2024-03-16T02:23:40.685Z,14.00
2024-03-16T02:26:08.754Z,13.32
2024-03-16T02:28:35.668Z,13.50
2024-03-16T02:31:02.942Z,14.90
2024-03-16T02:33:29.958Z,14.32
2024-03-16T02:35:57.286Z,12.70
2024-03-16T02:38:24.303Z,15.60
2024-03-16T02:40:51.067Z,15.90
2024-03-16T02:43:17.837Z,14.20
2024-03-16T02:45:44.779Z,13.00
2024-03-16T02:48:12.541Z,16.05
2024-03-16T02:50:39.421Z,13.02
2024-03-16T02:53:06.217Z,13.27
2024-03-16T02:55:33.096Z,14.45
2024-03-16T02:57:59.949Z,14.73
2024-03-16T03:00:28.330Z,14.68
2024-03-16T03:02:55.340Z,14.70
2024-03-16T03:05:23.850Z,14.35
2024-03-16T03:07:50.751Z,14.15
2024-03-16T03:10:18.041Z,12.90
2024-03-16T03:12:46.145Z,11.48
2024-03-16T03:15:13.113Z,13.10
2024-03-16T03:17:40.586Z,12.18
2024-03-16T03:20:10.219Z,11.43
2024-03-16T03:22:37.434Z,10.68
2024-03-16T03:25:04.876Z,10.63
2024-03-16T03:27:32.289Z,10.15
2024-03-16T03:29:59.192Z,9.05
2024-03-16T03:32:26.039Z,9.10
2024-03-16T03:34:52.853Z,9.25
2024-03-16T03:37:21.988Z,8.73
2024-03-16T03:39:53.207Z,8.52
2024-03-16T03:42:20.558Z,9.40
2024-03-16T03:45:07.584Z,8.07
2024-03-16T03:47:51.117Z,7.57
2024-03-16T03:50:27.790Z,9.00
2024-03-16T03:53:00.384Z,9.38
2024-03-16T03:55:27.672Z,8.57
2024-03-16T03:57:55.802Z,6.30
2024-03-16T04:00:23.105Z,7.28
2024-03-16T04:02:50.079Z,7.78
2024-03-16T04:05:16.839Z,10.02
2024-03-16T04:07:44.844Z,7.35
2024-03-16T04:10:11.738Z,6.43
2024-03-16T04:12:38.590Z,7.07
2024-03-16T04:15:05.838Z,6.78
2024-03-16T04:17:32.691Z,7.00
2024-03-16T04:19:59.469Z,7.25
2024-03-16T04:22:26.252Z,7.57
2024-03-16T04:24:53.100Z,4.80
2024-03-16T04:27:20.062Z,5.60
2024-03-16T04:29:46.877Z,5.45
2024-03-16T04:32:13.703Z,4.38
2024-03-16T04:34:40.475Z,5.30
2024-03-16T04:37:07.354Z,4.97
2024-03-16T04:39:34.190Z,4.55
2024-03-16T04:42:00.986Z,4.70
2024-03-16T04:44:27.730Z,4.05
2024-03-16T04:46:55.819Z,3.25
2024-03-16T04:49:22.740Z,4.40
2024-03-16T04:51:49.559Z,4.40
2024-03-16T04:54:16.378Z,4.80
2024-03-16T04:56:43.396Z,3.85
2024-03-16T04:59:12.340Z,4.47
2024-03-16T05:01:39.427Z,3.85
2024-03-16T05:04:06.443Z,3.80
2024-03-16T05:06:34.791Z,5.00
2024-03-16T05:09:11.087Z,4.07
2024-03-16T05:11:38.490Z,4.18
2024-03-16T05:14:07.342Z,4.95
2024-03-16T05:16:38.497Z,5.15
2024-03-16T05:19:05.937Z,3.60
2024-03-16T05:21:33.092Z,3.95
2024-03-16T05:24:03.037Z,3.92
2024-03-16T05:26:31.933Z,3.60
2024-03-16T05:28:59.136Z,4.32
2024-03-16T05:31:27.101Z,4.07
2024-03-16T05:33:54.024Z,4.85
2024-03-16T05:36:20.929Z,3.58
2024-03-16T05:38:47.662Z,3.70
2024-03-16T05:41:14.831Z,4.40
2024-03-16T05:43:44.404Z,5.32
2024-03-16T05:46:14.423Z,3.53
2024-03-16T05:48:41.885Z,4.35
2024-03-16T05:51:08.687Z,4.22
2024-03-16T05:53:35.528Z,5.05
2024-03-16T05:56:02.323Z,4.25
2024-03-16T05:58:32.792Z,5.13
2024-03-16T06:01:00.303Z,4.20
2024-03-16T06:03:28.128Z,4.70
2024-03-16T06:05:55.210Z,4.32
2024-03-16T06:08:22.026Z,5.47
2024-03-16T06:10:49.195Z,5.25
2024-03-16T06:13:16.414Z,4.25
2024-03-16T06:15:43.383Z,4.60
2024-03-16T06:18:10.359Z,5.72
2024-03-16T06:20:37.425Z,3.72
2024-03-16T06:23:04.639Z,3.63
2024-03-16T06:25:37.051Z,3.67
2024-03-16T06:28:08.133Z,3.90
2024-03-16T06:30:36.780Z,5.40
2024-03-16T06:33:10.424Z,6.20
2024-03-16T06:35:44.945Z,3.88
2024-03-16T06:38:11.690Z,4.93
2024-03-16T06:40:38.464Z,4.97
2024-03-16T06:43:05.360Z,3.50
2024-03-16T06:45:32.779Z,4.07
2024-03-16T06:47:59.700Z,3.05
2024-03-16T06:50:26.574Z,3.00
2024-03-16T06:52:53.347Z,3.28
2024-03-16T06:55:20.729Z,2.78
2024-03-16T06:57:47.740Z,4.22
2024-03-16T07:00:15.504Z,3.05
2024-03-16T07:02:42.486Z,3.50
2024-03-16T07:05:10.593Z,5.07
2024-03-16T07:07:37.477Z,3.08
2024-03-16T07:10:07.596Z,2.65
2024-03-16T07:12:34.871Z,3.65
2024-03-16T07:15:01.723Z,2.47
2024-03-16T07:17:32.427Z,2.65
2024-03-16T07:19:59.274Z,2.90
2024-03-16T07:22:26.035Z,2.67
2024-03-16T07:24:52.864Z,2.13
2024-03-16T07:27:19.680Z,2.85
2024-03-16T07:29:46.500Z,3.85
2024-03-16T07:32:13.461Z,4.68
2024-03-16T07:34:41.452Z,2.85
2024-03-16T07:37:08.334Z,2.47
2024-03-16T07:39:35.256Z,4.82
2024-03-16T07:42:02.090Z,3.13
2024-03-16T07:44:30.336Z,2.65
2024-03-16T07:46:57.156Z,4.05
2024-03-16T07:49:23.957Z,3.00
2024-03-16T07:51:50.799Z,2.80
2024-03-16T07:54:17.610Z,2.65
2024-03-16T07:56:44.925Z,4.28
2024-03-16T07:59:12.426Z,2.80
2024-03-16T08:01:39.334Z,1.92
2024-03-16T08:04:06.621Z,4.10
2024-03-16T08:06:33.504Z,4.32
2024-03-16T08:09:00.272Z,2.67
2024-03-16T08:11:29.222Z,4.72
2024-03-16T08:13:56.046Z,7.10
2024-03-16T08:16:22.862Z,4.68
2024-03-16T08:18:50.167Z,2.15
2024-03-16T08:21:17.419Z,2.63
2024-03-16T08:23:45.141Z,2.47
2024-03-16T08:26:13.694Z,4.43
2024-03-16T08:28:41.034Z,2.15
2024-03-16T08:31:09.397Z,4.70
2024-03-16T08:33:36.371Z,3.25
2024-03-16T08:36:06.904Z,2.78
2024-03-16T08:38:34.582Z,1.65
2024-03-16T08:41:03.176Z,2.45
2024-03-16T08:43:31.743Z,2.13
2024-03-16T08:46:02.819Z,3.17
2024-03-16T08:48:29.938Z,3.85
2024-03-16T08:51:00.270Z,3.10
2024-03-16T08:53:27.449Z,2.40
2024-03-16T08:55:59.372Z,1.95
2024-03-16T08:58:26.640Z,3.17
2024-03-16T09:00:56.900Z,2.58
2024-03-16T09:03:23.881Z,3.25
2024-03-16T09:05:50.633Z,3.15
2024-03-16T09:08:17.460Z,3.15
2024-03-16T09:10:45.688Z,2.70
2024-03-16T09:13:12.763Z,3.55
2024-03-16T09:15:40.290Z,3.08
2024-03-16T09:18:07.139Z,1.60
2024-03-16T09:20:34.950Z,2.05
2024-03-16T09:23:02.207Z,1.90
2024-03-16T09:25:29.264Z,3.45
2024-03-16T09:27:56.047Z,3.30
2024-03-16T09:30:23.218Z,3.28
2024-03-16T09:32:50.277Z,2.47
2024-03-16T09:35:17.126Z,3.35
2024-03-16T09:37:43.952Z,2.53
2024-03-16T09:40:12.334Z,1.92
2024-03-16T09:42:39.766Z,2.22
